• Join FlightAware (Why Join?)
  • Login
  • US Flag 
10:24AM EDT


 

Airport Tracker/Info


-or-


 

Live Flight TrackerFlight Track Log ✈ SWA540 ✈ 05-Jul-2013 ✈ KMCO - KMCI

Flight Track Log - Related Links

Times and Time Zones

All times are in EDT time to prevent confusion due to time zone crossing. See the SWA540 flight status page for this flight to view local times or setup timezone preferences in your user account.

Time Position Orientation Groundspeed Altitude Reporting Facility
EDT Latitude Longitude Course Direction KTS MPH feet Rate Location/Type
09:24AM 28.4167 -81.3000 270° West 155 178 700  Level Orlando TRACON
09:26AM 28.3500 -81.3500 213° Southwest 236 272 4,200 2,820 Climbing Orlando TRACON
09:28AM 28.3408 -81.5200 267° West 278 320 10,200 3,060 Climbing Jacksonville Center
09:29AM 28.3378 -81.6239 268° West 299 344 13,100 2,940 Climbing Jacksonville Center
09:30AM 28.4167 -82.0848 270° West  Level FlightAware Approximate
09:30AM 28.3367 -81.7369 269° West 337 388 16,100  Level Jacksonville Center
09:31AM 28.3628 -81.8522 284° West 370 426 18,900 2,700 Climbing Jacksonville Center
09:32AM 28.4117 -81.9697 295° West 385 443 21,500 2,580 Climbing Jacksonville Center
09:33AM 28.4958 -82.0589 317° Northwest 403 464 24,100 2,340 Climbing Jacksonville Center
09:34AM 28.5903 -82.1456 321° Northwest 409 471 26,200 2,220 Climbing Jacksonville Center
09:35AM 28.6886 -82.2275 324° Northwest 429 494 28,600 2,160 Climbing Jacksonville Center
09:36AM 28.7853 -82.3169 321° Northwest 441 507 30,600 1,680 Climbing Jacksonville Center
09:37AM 28.8794 -82.3994 323° Northwest 441 507 32,000 960 Climbing Jacksonville Center
09:38AM 28.9778 -82.4867 322° Northwest 441 507 32,600 1,260 Climbing Jacksonville Center
09:39AM 29.0719 -82.5767 320° Northwest 441 507 34,600 1,800 Climbing Jacksonville Center
09:40AM 29.1703 -82.6594 324° Northwest 441 507 36,200 1,560 Climbing Jacksonville Center
09:41AM 29.2664 -82.7497 321° Northwest 441 507 37,800 1,500 Climbing Jacksonville Center
09:42AM 29.3606 -82.8331 322° Northwest 441 507 39,300 1,080 Climbing Jacksonville Center
09:43AM 29.4544 -82.9189 321° Northwest 441 507 40,000 300 Climbing Jacksonville Center
09:44AM 29.5503 -83.0047 322° Northwest 435 501 40,000  Level Jacksonville Center
09:45AM 29.6336 -83.0981 316° Northwest 435 501 40,000  Level Jacksonville Center
09:46AM 29.7108 -83.2011 311° West 424 488 40,000  Level Jacksonville Center
09:47AM 29.7856 -83.3089 309° West 426 490 40,000  Level Jacksonville Center
09:48AM 29.8625 -83.4147 310° West 426 490 40,000  Level Jacksonville Center
09:49AM 29.9311 -83.5061 311° West 426 490 40,000  Level Jacksonville Center
09:50AM 30.0078 -83.6097 311° West 426 490 40,000  Level Jacksonville Center
09:51AM 30.0844 -83.7158 310° West 426 490 40,000  Level Jacksonville Center
09:52AM 30.1608 -83.8222 310° West 426 490 40,000  Level Jacksonville Center
09:53AM 30.2394 -83.9314 310° West 426 490 40,000  Level Jacksonville Center
09:54AM 30.3156 -84.0381 310° West 426 490 40,000  Level Jacksonville Center
09:55AM 30.3939 -84.1450 310° West 432 497 40,000  Level Jacksonville Center
09:56AM 30.4703 -84.2519 310° West 432 497 40,000  Level Jacksonville Center
09:57AM 30.5483 -84.3617 310° West 427 491 40,000  Level Jacksonville Center
09:58AM 30.6242 -84.4689 309° West 432 497 40,000  Level Jacksonville Center
09:59AM 30.7064 -84.5742 312° West 432 497 40,000  Level Jacksonville Center
10:00AM 30.7864 -84.6819 311° West 437 503 40,000  Level Jacksonville Center
10:01AM 30.8722 -84.8022 310° West 437 503 40,000  Level Jacksonville Center
10:02AM 30.9439 -84.8981 311° West 437 503 40,000  Level Jacksonville Center
10:03AM 31.0175 -84.9992 310° West 442 509 40,000  Level Jacksonville Center
10:04AM 31.1114 -85.1275 311° West 442 509 40,000  Level Jacksonville Center
10:05AM 31.1908 -85.2336 311° West 442 509 40,000  Level Jacksonville Center
10:06AM 31.2681 -85.3400 310° West 436 502 40,000  Level Jacksonville Center
10:07AM 31.3311 -85.4294 310° West 436 502 40,000  Level Jacksonville Center
10:08AM 31.4775 -85.6289 311° West 435 501 40,000  Level Atlanta Center
10:09AM 31.5556 -85.7375 310° West 435 501 40,000  Level Atlanta Center
10:10AM 31.6311 -85.8436 310° West 435 501 40,000  Level Atlanta Center
10:11AM 31.7128 -85.9625 309° West 430 495 40,000  Level Atlanta Center
10:12AM 31.7883 -86.0692 310° West 430 495 40,000  Level Atlanta Center
10:13AM 31.8578 -86.1636 311° West 424 488 40,000  Level Atlanta Center
10:14AM 31.9372 -86.2756 310° West 429 494 40,000  Level Atlanta Center
10:15AM 32.0331 -86.3981 313° West 445 512 40,000  Level Atlanta Center
10:16AM 32.1103 -86.5081 310° West 445 512 40,000  Level Atlanta Center
10:17AM 32.1892 -86.6206 310° West 445 512 40,000  Level Atlanta Center
10:18AM 32.2539 -86.7208 307° West 431 496 40,000  Level Atlanta Center
10:19AM 32.3328 -86.8339 310° West 431 496 40,000  Level Atlanta Center
10:20AM 32.4097 -86.9419 310° West 431 496 40,000  Level Atlanta Center
10:21AM 32.4864 -87.0528 309° West 431 496 40,000  Level Atlanta Center
10:22AM 32.5711 -87.1717 310° West 431 496 40,000  Level Atlanta Center
10:25AM 32.7264 -87.4014 309° West 445 512 40,000  Level Memphis Center
10:26AM 32.8042 -87.5125 310° West 433 498 40,000  Level Memphis Center
10:27AM 32.8819 -87.6239 310° West 433 498 40,000  Level Memphis Center
10:28AM 32.9617 -87.7403 309° West 438 504 40,000  Level Memphis Center
10:29AM 33.0392 -87.8592 308° West 448 516 40,000  Level Memphis Center
10:30AM 33.1186 -87.9711 310° West 448 516 40,000  Level Memphis Center
10:31AM 33.2022 -88.0806 312° West 448 516 40,000  Level Memphis Center
10:32AM 33.3064 -88.1897 319° Northwest 448 516 40,000  Level Memphis Center
10:33AM 33.4042 -88.2919 319° Northwest 458 527 40,000  Level Memphis Center
10:34AM 33.4997 -88.3942 318° Northwest 458 527 40,000  Level Memphis Center
10:35AM 33.5911 -88.4944 318° Northwest 451 519 40,000  Level Memphis Center
10:36AM 33.6864 -88.5997 317° Northwest 451 519 40,000  Level Memphis Center
10:37AM 33.7797 -88.7003 318° Northwest 451 519 40,000  Level Memphis Center
10:38AM 33.8750 -88.8036 318° Northwest 451 519 40,000  Level Memphis Center
10:39AM 33.9594 -88.8922 319° Northwest 444 511 40,000  Level Memphis Center
10:40AM 34.0525 -88.9908 319° Northwest 449 517 40,000  Level Memphis Center
10:41AM 34.1453 -89.0947 317° Northwest 449 517 40,000  Level Memphis Center
10:42AM 34.2381 -89.1939 319° Northwest 449 517 40,000  Level Memphis Center
10:43AM 34.3350 -89.3008 318° Northwest 449 517 40,000  Level Memphis Center
10:44AM 34.4278 -89.4028 318° Northwest 449 517 40,000  Level Memphis Center
10:45AM 34.5286 -89.5150 317° Northwest 449 517 40,000  Level Memphis Center
10:46AM 34.6211 -89.6203 317° Northwest 454 522 40,000  Level Memphis Center
10:47AM 34.7158 -89.7281 317° Northwest 449 517 40,000  Level Memphis Center
10:48AM 34.8039 -89.8233 318° Northwest 455 524 40,000  Level Memphis Center
10:49AM 34.9086 -89.9417 317° Northwest 472 543 40,000  Level Memphis Center
10:50AM 35.0028 -90.0453 318° Northwest 485 558 40,000  Level Memphis Center
10:51AM 35.0969 -90.1489 318° Northwest 471 542 40,000  Level Memphis Center
10:52AM 35.1931 -90.2606 316° Northwest 471 542 40,000  Level Memphis Center
10:53AM 35.2911 -90.3672 318° Northwest 471 542 40,000  Level Memphis Center
10:54AM 35.3953 -90.4894 316° Northwest 471 542 40,000  Level Memphis Center
10:55AM 35.4911 -90.5967 318° Northwest 471 542 40,000  Level Memphis Center
10:56AM 35.5847 -90.7042 317° Northwest 466 536 40,000  Level Memphis Center
10:57AM 35.6761 -90.8094 317° Northwest 460 529 40,000  Level Memphis Center
10:58AM 35.7633 -90.9172 315° West 445 512 40,000  Level Memphis Center
10:59AM 35.8567 -91.0256 317° Northwest 450 518 40,000  Level Memphis Center
11:00AM 35.9497 -91.1339 317° Northwest 450 518 40,000  Level Memphis Center
11:01AM 36.0389 -91.2400 316° Northwest 450 518 40,000  Level Memphis Center
11:02AM 36.1317 -91.3489 317° Northwest 450 518 40,000  Level Memphis Center
11:03AM 36.2247 -91.4581 317° Northwest 450 518 40,000  Level Memphis Center
11:04AM 36.3133 -91.5650 316° Northwest 445 512 40,000  Level Memphis Center
11:05AM 36.4039 -91.6719 316° Northwest 445 512 40,000  Level Memphis Center
11:07AM 36.6203 -91.9169 318° Northwest 449 517 40,000  Level Kansas City Center
11:08AM 36.7094 -92.0242 316° Northwest 446 513 40,000  Level Kansas City Center
11:09AM 36.7978 -92.1311 316° Northwest 443 510 40,000  Level Kansas City Center
11:10AM 36.8853 -92.2353 316° Northwest 438 504 40,000  Level Kansas City Center
11:11AM 36.9728 -92.3406 316° Northwest 435 501 40,000  Level Kansas City Center
11:12AM 37.0592 -92.4464 316° Northwest 434 499 40,000  Level Kansas City Center
11:13AM 37.1453 -92.5531 315° West 433 498 40,000 -60 Level Kansas City Center
11:14AM 37.2325 -92.6594 316° Northwest 434 499 39,900 -540 Descending Kansas City Center
11:15AM 37.3194 -92.7669 315° West 435 501 38,900 -1,080 Descending Kansas City Center
11:16AM 37.4239 -92.8939 316° Northwest 434 499 37,700 -1,080 Descending Kansas City Center
11:17AM 37.5108 -93.0008 316° Northwest 433 498 36,800 -840 Descending Kansas City Center
11:18AM 37.5969 -93.1075 316° Northwest 433 498 36,100 -420 Descending Kansas City Center
11:19AM 37.6814 -93.2133 315° West 428 493 36,000 -300 Descending Kansas City Center
11:20AM 37.7636 -93.3136 316° Northwest 413 475 35,500 -720 Descending Kansas City Center
11:21AM 37.8458 -93.4161 315° West 411 473 34,600 -960 Descending Kansas City Center
11:22AM 37.9272 -93.5178 315° West 411 473 33,600 -1,020 Descending Kansas City Center
11:23AM 38.0053 -93.6172 315° West 401 461 32,600 -1,020 Descending Kansas City Center
11:24AM 38.0817 -93.7122 316° Northwest 387 445 31,600 -1,620 Descending Kansas City Center
11:25AM 38.1811 -93.7956 327° Northwest 356 410 29,400 -1,980 Descending Kansas City Center
11:26AM 38.2678 -93.8436 336° Northwest 339 390 27,600 -1,800 Descending Kansas City Center
11:27AM 38.3531 -93.8933 335° Northwest 337 388 25,800 -1,800 Descending Kansas City Center
11:28AM 38.4394 -93.9436 335° Northwest 338 389 24,000 -1,800 Descending Kansas City Center
11:30AM 38.5244 -93.9939 335° Northwest 339 390 22,200 -1,860 Descending Kansas City Center
11:31AM 38.6192 -94.0469 336° Northwest 332 382 20,200 -1,860 Descending Kansas City Center
11:32AM 38.6972 -94.0989 333° Northwest 332 382 18,500 -1,620 Descending Kansas City Center
11:33AM 38.7661 -94.1728 320° Northwest 336 387 16,900 -1,800 Descending Kansas City Center
11:34AM 38.8417 -94.2558 319° Northwest 320 368 14,900 -1,800 Descending Kansas City Center
11:35AM 38.9050 -94.3247 320° Northwest 312 359 13,300 -1,440 Descending Kansas City Center
11:36AM 38.9764 -94.4003 321° Northwest 299 344 12,000 -660 Descending Kansas City Center
11:37AM 39.0358 -94.4656 320° Northwest 294 338 12,000  Level Kansas City Center
11:38AM 39.1056 -94.5417 320° Northwest 295 339 12,000 -60 Level Kansas City Center
11:39AM 39.1644 -94.6053 320° Northwest 291 335 11,900 -1,140 Descending Kansas City Center
11:40AM 39.2336 -94.6217 350° North 249 287 9,700 -1,980 Descending Kansas City Center
11:41AM 39.2972 -94.6036 12° North 245 282 7,900 -2,280 Descending Kansas City Center
11:42AM 39.3692 -94.5814 13° North 239 275 5,000 -2,040 Descending Kansas City Center
11:43AM 39.3900 -94.6386 295° West 190 219 3,800 -1,080 Descending Kansas City Center
11:44AM 39.3781 -94.6783 249° West 135 155 2,900 -1,020 Descending Kansas City Center
11:45AM 39.3381 -94.6928 196° South 131 151 1,700 -960 Descending Kansas City Center
11:46AM 39.3017 -94.7033 193° South 128 147 1,000 -720 Descending Kansas City Center